aviador You're here:

KVBT Decoded Metar

BENTONVILLE in AR, USA
Report Time2018-07-22 13:56:00
UTC Time2018-07-22 14:23:36
Flight Rules vfr VFR
Wind070° at 07 kt
W.Decomp.*RWY 36: 2.8 kt HW 6.4 kt RCW
W.Rank070° ranks 29
Current wind is above 070° avg. (6.0)
Visibility9999 m
Phenomena:N/A
Clouds:N/A
Expected CloudBase > 2,400 ft AGL from Temp-Dew spread
CeilingNone
Temp25°C (ISA +13)
Dew Point19°C (69% RH)
QNH1017 hPa
Density Alt2,910 ft
Elevation1,296 ft
Report Wrong Elevation
Raw Report
KVBT 221356Z AUTO 07007KT 10SM CLR 25/19 A3002 RMK AO2 SLP154
T02500189=

Extra information for KVBT:More info

Metar Taf Metar & Taf Last 4 Metars F.Rules Stats Wind Profile Meteogram Temp Stats Airport Information Weather charts Add Link Nearby VenuesMetar ALERT Operation Metar Decoded Social comments

AIRNAV info for KVBT